Main page
METAR-TAF:

METAR-TAF

Airports :

Kirksville Regional Airport

Kirksville, Missouri, United States

latitude: 40-05-50N, longitude: 092-32-36W, elevation: 964 ft

Current weather observation

The report was made 32 minutes ago, at 15:55 UTC
Wind 7 mph from the West/Northwest
Temperature 36°F
Humidity 75%
Pressure 30.16 in. Hg
Visibility: 10 miles
Few clouds at a height of 6000 ft

METAR: KIRK 201555Z AUTO 30006KT 10SM FEW060 02/M02 A3016 RMK AO2 SNE12 SLP225 P0000 T00171017

Time: 11:27 (16:27 UTC)


TAF: missing

Weather observations and forecasts of more than 4000 airports (METAR and TAF reports).

The available stations are represented by yellow and red dots on the map.

Hover mouse over dot to see the name of the station.

Then click to see weather observations and forecasts.

To change the map : click on the green buttons with a black cross to zoom in, on the green button with a dash to zoom out, or on the green arrows for adjacent maps.


METAR-TAF: